Time;durP1;ratioP1;P1;durP2;ratioP2;P2;SDS_P1;SDS_P2;PMS_P1;PMS_P2;Temp;Humidity;BMP_temperature;BMP_pressure;BME280_temperature;BME280_humidity;BME280_pressure;Samples;Min_cycle;Max_cycle;Signal;HPM_P1;HPM_P2
2023/04/21 00:00:31;;;;;;;0.10;0.10;;;;;;;18.60;49.97;101684.81;5071474;28;20517;-65
2023/04/21 00:02:56;;;;;;;0.10;0.10;;;;;;;18.07;50.92;101682.84;5071260;28;20052;-65
2023/04/21 00:05:21;;;;;;;0.20;0.20;;;;;;;17.93;52.17;101674.25;5071323;28;20101;-67
2023/04/21 00:07:47;;;;;;;0.10;0.10;;;;;;;18.67;50.36;101671.81;5071566;28;20075;-65
2023/04/21 00:10:12;;;;;;;0.25;0.25;;;;;;;18.48;50.89;101665.09;5071808;28;20477;-66
2023/04/21 00:12:37;;;;;;;0.20;0.20;;;;;;;18.56;50.91;101665.44;5071392;28;20035;-66
2023/04/21 00:15:04;;;;;;;0.15;0.15;;;;;;;18.05;51.83;101657.78;5071173;28;20059;-68
2023/04/21 00:17:30;;;;;;;0.10;0.10;;;;;;;18.04;52.55;101650.72;5071241;28;20488;-65
2023/04/21 00:19:55;;;;;;;0.10;0.10;;;;;;;18.07;52.81;101639.31;5071328;28;20025;-66
2023/04/21 00:22:21;;;;;;;0.10;0.10;;;;;;;18.63;51.21;101640.75;5072078;28;20162;-66
2023/04/21 00:24:47;;;;;;;0.20;0.20;;;;;;;17.93;53.00;101628.00;5071230;28;20456;-65
2023/04/21 00:27:12;;;;;;;0.20;0.20;;;;;;;18.12;52.94;101629.31;5071279;28;20044;-66
2023/04/21 00:29:39;;;;;;;0.20;0.20;;;;;;;17.66;54.57;101613.56;5070854;28;20477;-67
2023/04/21 00:32:08;;;;;;;0.20;0.20;;;;;;;18.34;52.88;101611.03;5071350;28;20504;-66
2023/04/21 00:34:34;;;;;;;0.20;0.20;;;;;;;18.44;52.54;101606.81;5071943;28;20024;-65
2023/04/21 00:36:59;;;;;;;0.10;0.10;;;;;;;17.94;53.86;101612.53;5071018;28;20059;-65
2023/04/21 00:39:25;;;;;;;0.20;0.20;;;;;;;18.39;52.36;101604.84;5071159;28;20044;-65
2023/04/21 00:41:50;;;;;;;0.20;0.20;;;;;;;18.00;53.65;101597.91;5071274;28;20518;-64
2023/04/21 00:44:16;;;;;;;0.20;0.20;;;;;;;18.82;51.20;101598.41;5071001;28;20036;-65
2023/04/21 00:46:42;;;;;;;0.10;0.10;;;;;;;18.69;51.21;101596.94;5071006;28;20031;-65
2023/04/21 00:49:07;;;;;;;0.10;0.10;;;;;;;18.06;53.49;101581.38;5071400;28;20024;-65
2023/04/21 00:51:34;;;;;;;0.10;0.10;;;;;;;18.36;52.74;101589.84;5070999;28;20147;-65
2023/04/21 00:54:02;;;;;;;0.20;0.20;;;;;;;18.60;51.14;101584.91;5071115;28;20032;-65
2023/04/21 00:56:30;;;;;;;0.10;0.10;;;;;;;17.92;53.98;101576.59;5070979;28;20028;-67
2023/04/21 00:58:57;;;;;;;0.20;0.20;;;;;;;18.90;50.63;101568.81;5070735;28;20455;-66
2023/04/21 01:01:23;;;;;;;0.10;0.10;;;;;;;18.83;50.17;101568.19;5071312;28;20056;-66
2023/04/21 01:03:49;;;;;;;0.10;0.10;;;;;;;18.22;51.92;101572.28;5070614;28;20061;-66
2023/04/21 01:06:14;;;;;;;0.20;0.20;;;;;;;17.21;55.38;101569.44;5073620;28;20036;-64
2023/04/21 01:08:40;;;;;;;0.10;0.10;;;;;;;17.89;52.97;101569.78;5074631;28;20075;-66
2023/04/21 01:11:13;;;;;;;0.17;0.17;;;;;;;17.49;54.62;101561.16;5056789;28;20473;-66
2023/04/21 01:13:39;;;;;;;0.10;0.10;;;;;;;18.13;52.79;101556.69;5074844;28;20024;-66
2023/04/21 01:16:05;;;;;;;0.20;0.20;;;;;;;18.02;52.68;101558.50;5075172;28;20043;-65
2023/04/21 01:18:30;;;;;;;0.20;0.20;;;;;;;18.44;51.71;101566.00;5074568;28;20033;-65
2023/04/21 01:20:57;;;;;;;0.22;0.22;;;;;;;18.25;52.13;101562.78;5074436;28;20071;-65
2023/04/21 01:23:22;;;;;;;0.20;0.20;;;;;;;18.33;51.56;101556.88;5074558;28;20033;-66
2023/04/21 01:25:50;;;;;;;0.20;0.20;;;;;;;18.55;51.13;101557.66;5074294;28;20548;-66
2023/04/21 01:28:21;;;;;;;0.13;0.13;;;;;;;18.19;52.94;101559.22;5069447;28;20147;-66
2023/04/21 01:30:46;;;;;;;0.30;0.30;;;;;;;18.15;52.32;101552.63;5054270;28;20036;-65
2023/04/21 01:33:12;;;;;;;0.15;0.15;;;;;;;17.81;53.40;101564.78;5068967;28;20041;-65
2023/04/21 01:35:37;;;;;;;0.15;0.15;;;;;;;18.02;52.32;101561.22;5074174;28;20028;-66
2023/04/21 01:38:02;;;;;;;0.20;0.20;;;;;;;18.12;52.08;101561.28;5074279;28;20753;-65
2023/04/21 01:40:28;;;;;;;0.20;0.20;;;;;;;18.57;50.86;101560.94;5074756;28;20090;-65
2023/04/21 01:42:53;;;;;;;0.10;0.10;;;;;;;18.59;51.15;101561.50;5074067;28;20063;-67
2023/04/21 01:45:19;;;;;;;0.20;0.20;;;;;;;18.04;52.18;101569.13;5073912;28;20132;-66
2023/04/21 01:47:44;;;;;;;0.25;0.25;;;;;;;18.22;52.61;101566.03;5073968;28;20032;-65
2023/04/21 01:50:09;;;;;;;0.13;0.13;;;;;;;18.59;51.42;101563.38;5074043;28;20048;-67
2023/04/21 01:52:35;;;;;;;0.20;0.20;;;;;;;18.67;50.49;101560.97;5074863;28;20074;-66
2023/04/21 01:55:01;;;;;;;0.20;0.20;;;;;;;18.35;51.01;101560.16;5073664;28;20615;-66
2023/04/21 01:57:26;;;;;;;0.10;0.10;;;;;;;18.41;51.48;101559.13;5043956;28;20041;-64
2023/04/21 01:59:51;;;;;;;0.20;0.20;;;;;;;18.74;50.54;101566.22;5063321;28;20040;-65
2023/04/21 02:02:17;;;;;;;0.20;0.20;;;;;;;18.83;50.25;101562.75;5063595;28;20037;-65
2023/04/21 02:04:42;;;;;;;0.20;0.20;;;;;;;18.79;50.38;101561.63;5062250;28;20032;-67
2023/04/21 02:07:07;;;;;;;0.20;0.20;;;;;;;18.05;52.17;101579.75;5064726;28;20035;-66
2023/04/21 02:09:33;;;;;;;0.20;0.20;;;;;;;18.17;52.05;101571.41;5066222;28;20028;-66
2023/04/21 02:11:59;;;;;;;0.10;0.10;;;;;;;18.90;50.65;101571.53;5073883;28;20029;-65
2023/04/21 02:14:25;;;;;;;0.10;0.10;;;;;;;19.14;49.59;101572.75;5073780;28;20035;-64
2023/04/21 02:16:50;;;;;;;0.10;0.10;;;;;;;18.45;51.42;101573.91;5072217;28;20020;-67
2023/04/21 02:19:15;;;;;;;0.20;0.20;;;;;;;18.88;49.97;101567.41;5073874;28;20101;-66
2023/04/21 02:21:41;;;;;;;0.20;0.20;;;;;;;18.18;51.97;101573.06;5073073;28;20037;-66
2023/04/21 02:24:06;;;;;;;0.10;0.10;;;;;;;18.61;51.66;101572.13;5073045;28;20519;-66
2023/04/21 02:26:32;;;;;;;0.10;0.10;;;;;;;18.25;52.55;101569.06;5073167;28;20029;-65
2023/04/21 02:28:57;;;;;;;0.20;0.20;;;;;;;17.69;54.22;101564.09;5072726;28;21635;-66
2023/04/21 02:31:22;;;;;;;0.25;0.25;;;;;;;18.20;52.49;101571.72;5073420;28;20403;-65
2023/04/21 02:33:48;;;;;;;0.10;0.10;;;;;;;18.84;50.52;101567.13;5073128;28;20028;-67
2023/04/21 02:36:13;;;;;;;0.13;0.13;;;;;;;18.17;52.40;101563.25;5073284;28;20089;-65
2023/04/21 02:38:39;;;;;;;0.13;0.13;;;;;;;18.26;52.70;101565.25;5073109;28;20411;-66
2023/04/21 02:41:04;;;;;;;0.13;0.13;;;;;;;18.56;51.53;101556.56;5073039;28;20041;-66
2023/04/21 02:43:30;;;;;;;0.22;0.22;;;;;;;17.61;53.95;101566.47;5073569;28;20024;-64
2023/04/21 02:45:56;;;;;;;0.10;0.10;;;;;;;17.63;54.88;101565.13;5072951;28;20081;-65
2023/04/21 02:48:21;;;;;;;0.20;0.20;;;;;;;17.55;55.04;101571.03;5073022;28;20044;-65
2023/04/21 02:50:51;;;;;;;0.20;0.20;;;;;;;18.13;52.23;101564.84;5073063;28;20029;-65
2023/04/21 02:53:17;;;;;;;0.10;0.10;;;;;;;18.36;52.37;101556.34;5073216;28;20028;-66
2023/04/21 02:55:43;;;;;;;0.22;0.22;;;;;;;17.82;53.97;101546.59;5072851;28;20027;-67
2023/04/21 02:58:09;;;;;;;0.20;0.20;;;;;;;18.47;52.34;101557.28;5055061;28;20029;-66
2023/04/21 03:00:34;;;;;;;0.10;0.10;;;;;;;18.42;51.19;101564.34;5072399;28;20408;-64
2023/04/21 03:03:00;;;;;;;0.17;0.17;;;;;;;17.97;53.44;101560.31;5072347;28;20049;-66
2023/04/21 03:05:25;;;;;;;0.20;0.20;;;;;;;18.64;51.58;101571.59;5072458;28;20078;-65
2023/04/21 03:07:51;;;;;;;0.30;0.30;;;;;;;18.89;51.23;101558.97;5072398;28;20036;-65
2023/04/21 03:10:16;;;;;;;0.10;0.10;;;;;;;18.25;52.07;101562.78;5074906;28;20047;-65
2023/04/21 03:12:41;;;;;;;0.10;0.10;;;;;;;18.48;51.68;101569.81;5074708;28;20032;-66
2023/04/21 03:15:07;;;;;;;0.20;0.20;;;;;;;18.70;51.47;101567.81;5073085;28;20029;-66
2023/04/21 03:17:32;;;;;;;0.10;0.10;;;;;;;18.11;52.83;101578.72;5072542;28;20078;-66
2023/04/21 03:19:58;;;;;;;0.10;0.10;;;;;;;18.88;50.76;101570.13;5073470;28;20120;-66
2023/04/21 03:22:24;;;;;;;0.10;0.10;;;;;;;18.95;50.55;101578.88;5074876;28;20032;-64
2023/04/21 03:24:49;;;;;;;0.10;0.10;;;;;;;18.79;51.52;101571.72;5073839;28;20048;-64
2023/04/21 03:27:14;;;;;;;0.20;0.20;;;;;;;17.92;53.89;101577.44;5075139;28;20047;-65
2023/04/21 03:29:40;;;;;;;0.10;0.10;;;;;;;17.52;55.21;101577.78;5056416;28;20021;-65
2023/04/21 03:32:05;;;;;;;0.20;0.20;;;;;;;17.91;53.79;101583.09;5052564;28;20033;-66
2023/04/21 03:34:31;;;;;;;0.20;0.20;;;;;;;18.21;54.24;101584.25;5054934;28;20492;-65
2023/04/21 03:36:56;;;;;;;0.17;0.17;;;;;;;18.78;51.67;101579.06;5068718;28;20033;-65
2023/04/21 03:39:21;;;;;;;0.20;0.20;;;;;;;18.54;52.37;101588.66;5072160;28;20048;-66
2023/04/21 03:41:47;;;;;;;0.10;0.10;;;;;;;19.13;50.71;101573.84;5071490;28;20036;-67
2023/04/21 03:44:12;;;;;;;0.20;0.20;;;;;;;17.95;53.46;101586.97;5071928;28;20025;-66
2023/04/21 03:46:38;;;;;;;0.10;0.10;;;;;;;18.30;52.43;101584.59;5072148;28;20058;-65
2023/04/21 03:49:03;;;;;;;0.10;0.10;;;;;;;19.24;50.57;101577.44;5071581;28;20044;-65
2023/04/21 03:51:28;;;;;;;0.20;0.20;;;;;;;18.25;53.69;101590.00;5071355;28;20036;-65
2023/04/21 03:53:54;;;;;;;0.20;0.20;;;;;;;18.30;53.36;101585.41;5071322;28;20037;-65
2023/04/21 03:56:19;;;;;;;0.20;0.20;;;;;;;19.09;51.17;101571.91;5072000;28;20101;-66
2023/04/21 03:58:45;;;;;;;0.30;0.30;;;;;;;18.34;52.43;101580.28;5071604;28;20036;-66
2023/04/21 04:01:10;;;;;;;0.20;0.20;;;;;;;18.39;53.26;101574.91;5071767;28;20029;-65
2023/04/21 04:03:35;;;;;;;0.10;0.10;;;;;;;19.16;50.89;101572.50;5071275;28;20067;-66
2023/04/21 04:06:02;;;;;;;0.20;0.20;;;;;;;18.84;51.64;101582.63;5071266;28;20047;-66
2023/04/21 04:08:28;;;;;;;0.10;0.10;;;;;;;17.79;54.24;101583.25;5071294;28;20071;-64
2023/04/21 04:10:54;;;;;;;0.20;0.20;;;;;;;18.25;53.08;101587.28;5053383;28;20103;-64
2023/04/21 04:13:21;;;;;;;0.20;0.20;;;;;;;18.71;52.68;101569.47;5071596;28;20032;-65
2023/04/21 04:15:46;;;;;;;0.20;0.20;;;;;;;19.36;49.86;101567.16;5070780;28;20044;-66
2023/04/21 04:18:12;;;;;;;0.10;0.10;;;;;;;19.64;49.25;101576.81;5053531;28;20033;-65
2023/04/21 04:20:37;;;;;;;0.20;0.20;;;;;;;19.25;50.06;101568.19;5071236;28;20033;-66
2023/04/21 04:23:02;;;;;;;0.10;0.10;;;;;;;19.21;50.27;101567.91;5071363;28;20174;-65
2023/04/21 04:25:28;;;;;;;0.20;0.20;;;;;;;19.28;50.03;101568.47;5072163;28;20101;-64
2023/04/21 04:27:54;;;;;;;0.10;0.10;;;;;;;19.40;49.11;101562.81;5068833;28;20029;-66
2023/04/21 04:30:20;;;;;;;0.20;0.20;;;;;;;19.27;49.48;101564.13;5051411;28;20132;-66
2023/04/21 04:32:45;;;;;;;0.20;0.20;;;;;;;19.40;50.05;101565.53;5051154;28;20461;-65
2023/04/21 04:35:12;;;;;;;0.10;0.10;;;;;;;19.17;49.83;101561.31;5051335;28;20051;-65
2023/04/21 04:37:38;;;;;;;0.20;0.20;;;;;;;19.02;50.50;101566.69;5051599;28;20525;-66
2023/04/21 04:40:05;;;;;;;0.10;0.10;;;;;;;19.38;49.34;101559.53;5052338;28;20029;-65
2023/04/21 04:42:32;;;;;;;0.20;0.20;;;;;;;19.61;48.49;101561.00;5062354;28;20024;-65
2023/04/21 04:44:58;;;;;;;0.10;0.10;;;;;;;19.56;48.90;101564.53;5075198;28;20036;-65
2023/04/21 04:47:24;;;;;;;0.10;0.10;;;;;;;19.77;48.16;101565.44;5075028;28;20523;-65
2023/04/21 04:49:49;;;;;;;0.20;0.20;;;;;;;19.50;49.11;101573.78;5075117;28;20041;-66
2023/04/21 04:52:15;;;;;;;0.10;0.10;;;;;;;19.36;48.93;101571.81;5075532;28;20610;-65
2023/04/21 04:54:40;;;;;;;0.20;0.20;;;;;;;19.50;48.82;101572.97;5074862;28;20029;-66
2023/04/21 04:57:05;;;;;;;0.10;0.10;;;;;;;18.85;51.27;101570.69;5074849;28;20071;-67
2023/04/21 04:59:31;;;;;;;0.10;0.10;;;;;;;18.99;51.00;101575.38;5074667;28;20040;-65
2023/04/21 05:01:56;;;;;;;0.10;0.10;;;;;;;19.54;49.44;101579.50;5072439;28;20036;-64
2023/04/21 05:04:22;;;;;;;0.20;0.20;;;;;;;19.72;48.24;101579.03;5067919;28;20052;-66
2023/04/21 05:06:48;;;;;;;0.10;0.10;;;;;;;19.64;48.64;101569.47;5059399;28;20025;-65
2023/04/21 05:09:15;;;;;;;0.13;0.13;;;;;;;18.60;50.53;101579.47;5064736;28;20052;-67
2023/04/21 05:11:40;;;;;;;0.10;0.10;;;;;;;17.99;53.89;101583.47;5064633;28;20397;-65
2023/04/21 05:14:05;;;;;;;0.20;0.20;;;;;;;18.02;54.11;101585.69;5063265;28;20044;-66
2023/04/21 05:16:33;;;;;;;0.20;0.20;;;;;;;18.25;53.71;101584.56;5063598;28;20380;-66
2023/04/21 05:19:00;;;;;;;0.10;0.10;;;;;;;18.82;51.84;101576.63;5063940;28;20036;-67
2023/04/21 05:21:26;;;;;;;0.20;0.20;;;;;;;18.32;53.29;101579.72;5064848;28;20057;-66
2023/04/21 05:23:53;;;;;;;0.10;0.10;;;;;;;17.80;54.35;101584.06;5063110;28;20090;-66
2023/04/21 05:26:18;;;;;;;0.10;0.10;;;;;;;18.11;54.33;101592.31;5061709;28;20118;-65
2023/04/21 05:28:43;;;;;;;0.10;0.10;;;;;;;18.29;53.82;101593.84;5065408;28;20048;-66
2023/04/21 05:31:09;;;;;;;0.20;0.20;;;;;;;17.74;55.76;101588.66;5065097;28;20056;-65
2023/04/21 05:33:34;;;;;;;0.22;0.22;;;;;;;18.27;54.37;101596.00;5063325;28;20025;-66
2023/04/21 05:36:00;;;;;;;0.20;0.20;;;;;;;18.47;53.54;101579.91;5063545;28;20032;-68
2023/04/21 05:38:26;;;;;;;0.20;0.20;;;;;;;18.38;53.10;101581.41;5066442;28;20040;-65
2023/04/21 05:40:54;;;;;;;0.20;0.20;;;;;;;18.57;52.90;101576.44;5060206;28;20029;-65
2023/04/21 05:43:21;;;;;;;0.10;0.10;;;;;;;19.02;51.33;101574.03;5063703;28;20059;-67
2023/04/21 05:45:46;;;;;;;0.10;0.10;;;;;;;19.17;51.16;101577.69;5064669;28;20692;-67
2023/04/21 05:48:12;;;;;;;0.10;0.10;;;;;;;18.96;51.45;101577.81;5038109;28;20049;-65
2023/04/21 05:50:37;;;;;;;1.38;0.20;;;;;;;18.03;53.29;101592.78;5063865;28;20142;-65
2023/04/21 05:53:02;;;;;;;0.10;0.10;;;;;;;17.85;55.18;101593.09;5063981;28;20111;-65
2023/04/21 05:55:28;;;;;;;0.10;0.10;;;;;;;18.52;53.37;101587.28;5058778;28;20025;-66
2023/04/21 05:57:53;;;;;;;0.20;0.20;;;;;;;18.85;51.80;101589.75;5052313;28;20041;-64
2023/04/21 06:00:18;;;;;;;0.20;0.20;;;;;;;19.18;51.48;101594.84;5054879;28;20120;-65
2023/04/21 06:02:44;;;;;;;0.10;0.10;;;;;;;19.00;51.68;101598.84;5058813;28;20056;-69
2023/04/21 06:05:09;;;;;;;0.10;0.10;;;;;;;18.82;51.44;101595.69;5043045;28;20033;-65
2023/04/21 06:07:36;;;;;;;0.10;0.10;;;;;;;18.77;52.18;101599.19;5021110;28;20082;-66
2023/04/21 06:10:02;;;;;;;0.10;0.10;;;;;;;18.76;52.67;101596.72;5050138;28;20472;-65
2023/04/21 06:12:28;;;;;;;0.10;0.10;;;;;;;18.48;53.13;101591.59;5049397;28;20047;-66
2023/04/21 06:14:56;;;;;;;0.20;0.20;;;;;;;17.25;57.45;101595.03;5051691;28;20033;-65
2023/04/21 06:17:24;;;;;;;0.10;0.10;;;;;;;19.19;52.07;101596.47;5051873;28;20045;-66
2023/04/21 06:19:52;;;;;;;0.10;0.10;;;;;;;19.21;51.58;101595.13;5052025;28;20104;-67
2023/04/21 06:22:21;;;;;;;0.10;0.10;;;;;;;19.07;51.59;101588.50;5035075;28;20140;-67
2023/04/21 06:24:46;;;;;;;0.10;0.10;;;;;;;19.28;52.09;101592.19;5026583;28;20033;-67
2023/04/21 06:27:12;;;;;;;0.20;0.20;;;;;;;18.88;53.33;101597.38;5045950;28;20037;-66
2023/04/21 06:29:38;;;;;;;0.10;0.10;;;;;;;18.80;52.48;101598.69;5031569;28;20494;-66
2023/04/21 06:32:03;;;;;;;0.10;0.10;;;;;;;18.76;53.07;101591.28;5054148;28;20127;-66
2023/04/21 06:34:29;;;;;;;0.20;0.20;;;;;;;19.01;52.60;101586.00;5047680;28;20052;-67
2023/04/21 06:36:54;;;;;;;0.10;0.10;;;;;;;19.59;50.73;101588.56;5050969;28;20496;-66
2023/04/21 06:39:19;;;;;;;0.10;0.10;;;;;;;19.45;51.15;101587.41;5026899;28;20033;-66
2023/04/21 06:41:45;;;;;;;0.10;0.10;;;;;;;19.70;50.86;101586.66;5045096;28;20033;-66
2023/04/21 06:44:13;;;;;;;0.10;0.10;;;;;;;18.99;52.98;101586.28;5046442;28;20040;-65
2023/04/21 06:46:42;;;;;;;0.10;0.10;;;;;;;19.92;50.95;101581.84;5041740;28;20025;-64
2023/04/21 06:49:08;;;;;;;0.10;0.10;;;;;;;19.53;51.37;101564.25;5044350;28;20115;-66
2023/04/21 06:51:33;;;;;;;0.15;0.15;;;;;;;20.02;49.99;101560.03;5038814;28;20549;-65
2023/04/21 06:54:00;;;;;;;0.10;0.10;;;;;;;20.23;49.14;101563.63;5028214;28;20033;-66
2023/04/21 06:56:28;;;;;;;0.10;0.10;;;;;;;20.24;49.64;101568.00;5040856;28;20033;-64
2023/04/21 06:58:54;;;;;;;0.15;0.15;;;;;;;19.35;51.70;101568.25;5046680;28;20059;-66
2023/04/21 07:01:20;;;;;;;0.10;0.10;;;;;;;19.74;50.14;101561.31;5051233;28;20024;-65
2023/04/21 07:03:45;;;;;;;0.10;0.10;;;;;;;20.04;49.51;101569.59;5063196;28;20492;-64
2023/04/21 07:06:11;;;;;;;0.20;0.20;;;;;;;19.42;51.02;101568.81;5071577;28;20040;-66
2023/04/21 07:08:36;;;;;;;0.20;0.20;;;;;;;20.29;49.01;101557.09;5062499;28;20485;-64
2023/04/21 07:11:02;;;;;;;0.10;0.10;;;;;;;20.05;48.88;101556.75;5050014;28;20041;-65
2023/04/21 07:13:27;;;;;;;0.10;0.10;;;;;;;19.70;50.78;101564.84;5051301;28;20021;-66
2023/04/21 07:15:53;;;;;;;0.10;0.10;;;;;;;20.32;48.58;101564.75;5049891;28;20040;-67
2023/04/21 07:18:18;;;;;;;0.10;0.10;;;;;;;20.32;48.75;101571.03;5064385;28;20040;-65
2023/04/21 07:20:44;;;;;;;0.20;0.20;;;;;;;19.86;49.58;101564.63;5070398;28;20027;-66
2023/04/21 07:23:09;;;;;;;0.10;0.10;;;;;;;19.92;50.17;101571.75;5061135;28;20045;-65
2023/04/21 07:25:35;;;;;;;0.10;0.10;;;;;;;20.25;48.83;101558.72;5041196;28;20373;-64
2023/04/21 07:28:02;;;;;;;0.10;0.10;;;;;;;20.67;48.07;101570.22;5031724;28;20029;-65
2023/04/21 07:30:28;;;;;;;0.17;0.17;;;;;;;20.61;47.69;101574.84;5044632;28;20036;-65
2023/04/21 07:32:54;;;;;;;0.10;0.10;;;;;;;19.75;50.44;101573.84;5038879;28;20494;-64
2023/04/21 07:35:19;;;;;;;0.20;0.20;;;;;;;20.02;49.67;101562.75;5049926;28;20044;-64
2023/04/21 07:37:45;;;;;;;0.20;0.20;;;;;;;19.92;50.47;101570.91;5051876;28;20465;-64
2023/04/21 07:40:10;;;;;;;0.10;0.10;;;;;;;20.67;49.06;101565.56;5052336;28;20024;-65
2023/04/21 07:42:36;;;;;;;0.10;0.10;;;;;;;19.40;51.34;101562.03;5051722;28;20033;-65
2023/04/21 07:45:02;;;;;;;0.10;0.10;;;;;;;19.68;50.81;101559.66;5063730;28;20036;-66
2023/04/21 07:47:28;;;;;;;0.13;0.13;;;;;;;19.36;51.76;101569.09;5071503;28;20033;-66
2023/04/21 07:49:53;;;;;;;0.10;0.10;;;;;;;19.78;50.62;101561.59;5071607;28;20032;-64
2023/04/21 07:52:19;;;;;;;0.10;0.10;;;;;;;19.77;50.41;101555.31;5072791;28;20024;-65
2023/04/21 07:54:44;;;;;;;0.10;0.10;;;;;;;20.15;49.61;101563.06;5053682;28;20028;-66
2023/04/21 07:57:10;;;;;;;0.17;0.17;;;;;;;20.35;48.47;101561.47;5071971;28;20040;-65
2023/04/21 07:59:35;;;;;;;0.20;0.20;;;;;;;20.74;48.32;101568.81;5071571;28;20036;-65
2023/04/21 08:02:00;;;;;;;0.10;0.10;;;;;;;19.86;49.98;101564.63;5053073;28;20120;-65
2023/04/21 08:04:26;;;;;;;0.10;0.10;;;;;;;19.56;51.02;101563.69;5072135;28;20042;-63
2023/04/21 08:06:51;;;;;;;0.10;0.10;;;;;;;19.94;49.29;101560.56;5071039;28;20041;-65
2023/04/21 08:09:17;;;;;;;0.10;0.10;;;;;;;19.93;49.37;101559.72;5071306;28;20035;-64
2023/04/21 08:11:42;;;;;;;0.10;0.10;;;;;;;19.46;51.18;101566.41;5071562;28;20024;-65
2023/04/21 08:14:10;;;;;;;0.10;0.10;;;;;;;20.24;49.12;101565.28;5070965;28;20032;-65
2023/04/21 08:16:36;;;;;;;0.10;0.10;;;;;;;20.37;49.03;101571.03;5071478;28;20030;-64
2023/04/21 08:19:02;;;;;;;0.10;0.10;;;;;;;20.48;48.53;101564.47;5071053;28;20044;-65
2023/04/21 08:21:27;;;;;;;0.22;0.22;;;;;;;20.59;48.37;101570.75;5071018;28;20455;-66
2023/04/21 08:23:54;;;;;;;0.20;0.20;;;;;;;21.38;46.25;101571.72;5071000;28;20055;-64
2023/04/21 08:26:20;;;;;;;0.10;0.10;;;;;;;20.65;48.57;101567.75;5071203;28;20392;-65
2023/04/21 08:28:48;;;;;;;0.10;0.10;;;;;;;21.39;47.28;101570.63;5061474;28;20032;-65
2023/04/21 08:31:13;;;;;;;0.20;0.20;;;;;;;21.24;46.87;101567.13;5051588;28;20046;-65
2023/04/21 08:33:38;;;;;;;0.10;0.10;;;;;;;20.97;47.55;101561.97;5050988;28;20041;-66
2023/04/21 08:36:04;;;;;;;0.10;0.10;;;;;;;19.89;49.63;101572.28;5067393;28;20032;-64
2023/04/21 08:38:30;;;;;;;0.10;0.10;;;;;;;20.19;50.70;101571.53;5071397;28;20028;-65
2023/04/21 08:41:02;;;;;;;0.20;0.20;;;;;;;20.48;48.86;101572.66;5071090;28;20074;-65
2023/04/21 08:43:28;;;;;;;0.10;0.10;;;;;;;20.76;48.03;101563.91;5071488;28;20052;-67
2023/04/21 08:45:54;;;;;;;0.10;0.10;;;;;;;20.10;49.07;101556.78;5070870;28;20043;-65
2023/04/21 08:48:22;;;;;;;0.20;0.20;;;;;;;20.80;48.02;101556.81;5070914;28;20042;-65
2023/04/21 08:50:49;;;;;;;0.10;0.10;;;;;;;21.11;47.18;101554.06;5071050;28;20029;-65
2023/04/21 08:53:16;;;;;;;0.10;0.10;;;;;;;20.44;49.11;101557.13;5070730;28;20085;-65
2023/04/21 08:55:42;;;;;;;0.10;0.10;;;;;;;19.90;49.57;101560.28;5071082;28;20028;-64
2023/04/21 08:58:12;;;;;;;0.10;0.10;;;;;;;20.49;48.52;101559.81;5052565;28;20132;-64
2023/04/21 09:00:38;;;;;;;0.20;0.20;;;;;;;19.98;49.85;101562.50;5070702;28;20040;-63
2023/04/21 09:03:06;;;;;;;0.08;0.08;;;;;;;20.74;48.06;101562.53;5070006;28;20056;-64
2023/04/21 09:05:33;;;;;;;0.10;0.10;;;;;;;20.30;48.32;101564.19;5070860;28;20033;-64
2023/04/21 09:08:13;;;;;;;0.10;0.10;;;;;;;20.17;48.00;101561.97;5070672;28;20404;-66
2023/04/21 09:10:43;;;;;;;0.10;0.10;;;;;;;19.98;49.35;101561.66;5070844;28;20610;-64
2023/04/21 09:13:09;;;;;;;0.13;0.13;;;;;;;20.34;48.96;101560.66;5071358;28;20104;-66
2023/04/21 09:15:42;;;;;;;0.20;0.20;;;;;;;21.27;46.47;101561.91;5070417;28;20028;-64
2023/04/21 09:18:38;;;;;;;0.13;0.13;;;;;;;21.32;46.97;101561.09;5070435;28;20081;-64
2023/04/21 09:21:08;;;;;;;0.10;0.10;;;;;;;21.83;45.80;101562.53;5070546;28;20060;-65
2023/04/21 09:23:50;;;;;;;0.20;0.20;;;;;;;20.94;46.80;101557.03;5069665;28;20110;-64
2023/04/21 09:26:17;;;;;;;0.10;0.10;;;;;;;20.92;46.89;101557.34;5071053;28;20028;-64
2023/04/21 09:28:43;;;;;;;0.10;0.10;;;;;;;21.34;45.73;101556.16;5064528;28;20431;-65
2023/04/21 09:31:20;;;;;;;0.10;0.10;;;;;;;21.22;46.16;101553.75;5054110;28;20021;-64
2023/04/21 09:33:50;;;;;;;0.10;0.10;;;;;;;21.19;45.80;101558.94;5053245;28;20508;-64
2023/04/21 09:36:23;;;;;;;0.15;0.15;;;;;;;20.69;47.28;101560.66;5070957;28;20695;-64
2023/04/21 09:38:50;;;;;;;0.10;0.10;;;;;;;21.12;46.35;101558.41;5073734;28;20546;-63
2023/04/21 09:41:17;;;;;;;0.13;0.13;;;;;;;21.45;45.67;101555.00;5073837;28;20381;-63
2023/04/21 09:43:43;;;;;;;0.20;0.10;;;;;;;20.59;47.16;101554.38;5073648;28;20059;-65
2023/04/21 09:46:10;;;;;;;0.13;0.13;;;;;;;19.76;49.54;101550.13;5073890;28;20016;-64
2023/04/21 09:48:35;;;;;;;0.10;0.10;;;;;;;20.44;48.08;101551.66;5073625;28;20091;-65
2023/04/21 09:51:01;;;;;;;0.13;0.13;;;;;;;20.36;48.69;101552.19;5055008;28;20399;-65
2023/04/21 09:53:27;;;;;;;0.20;0.20;;;;;;;20.76;47.76;101560.34;5073959;28;20358;-64
2023/04/21 09:55:55;;;;;;;0.20;0.20;;;;;;;21.41;46.22;101548.47;5073753;28;20059;-64
2023/04/21 09:58:26;;;;;;;0.10;0.10;;;;;;;21.31;46.45;101546.59;5073529;28;20024;-64
2023/04/21 10:00:54;;;;;;;0.10;0.10;;;;;;;21.29;46.61;101542.50;5073220;28;20499;-65
2023/04/21 10:03:22;;;;;;;0.10;0.10;;;;;;;21.84;44.97;101537.59;5072991;28;20052;-64
2023/04/21 10:05:48;;;;;;;0.10;0.10;;;;;;;21.72;44.74;101536.25;5073347;28;20355;-65
2023/04/21 10:08:15;;;;;;;0.10;0.10;;;;;;;21.47;45.93;101534.50;5073527;28;20040;-64
2023/04/21 10:10:41;;;;;;;0.10;0.10;;;;;;;21.98;44.95;101537.78;5073286;28;20105;-65
2023/04/21 10:13:13;;;;;;;0.10;0.10;;;;;;;21.03;47.23;101530.81;5073982;28;20025;-65
2023/04/21 10:15:40;;;;;;;0.10;0.10;;;;;;;21.86;45.73;101529.09;5073353;28;20044;-65
2023/04/21 10:18:15;;;;;;;0.10;0.10;;;;;;;22.21;44.77;101531.59;5073288;28;20040;-64
2023/04/21 10:20:57;;;;;;;0.15;0.15;;;;;;;22.64;44.32;101513.47;5073264;28;20048;-65
2023/04/21 10:23:38;;;;;;;0.13;0.13;;;;;;;23.49;42.96;101512.50;5073415;28;20032;-64
2023/04/21 10:26:13;;;;;;;0.10;0.10;;;;;;;23.28;42.88;101519.31;5073280;28;20372;-65
2023/04/21 10:28:52;;;;;;;0.10;0.10;;;;;;;23.01;43.21;101516.38;5064478;28;20024;-65
2023/04/21 10:31:21;;;;;;;0.15;0.15;;;;;;;23.34;42.40;101517.38;5054062;28;20037;-64
2023/04/21 10:34:17;;;;;;;0.10;0.10;;;;;;;22.94;43.02;101515.88;5052827;28;20033;-66
2023/04/21 10:36:45;;;;;;;0.00;0.00;;;;;;;22.54;44.12;101519.00;4991044;28;20042;-65
2023/04/21 10:39:44;;;;;;;0.10;0.10;;;;;;;23.47;41.59;101505.66;4990296;28;20568;-64
2023/04/21 10:42:12;;;;;;;0.10;0.10;;;;;;;22.37;44.21;101504.91;4991149;28;20039;-66
2023/04/21 10:44:51;;;;;;;0.10;0.10;;;;;;;21.93;44.56;101504.16;4991128;28;20545;-65
2023/04/21 10:47:42;;;;;;;0.10;0.10;;;;;;;22.70;43.69;101499.41;4991051;28;20053;-66
2023/04/21 10:50:21;;;;;;;0.10;0.10;;;;;;;22.54;43.53;101502.56;4990798;28;20118;-65
2023/04/21 10:53:05;;;;;;;0.10;0.10;;;;;;;22.45;43.85;101494.16;4990856;28;20532;-64
2023/04/21 10:55:31;;;;;;;0.10;0.10;;;;;;;21.77;44.50;101498.78;5003999;28;20543;-67
2023/04/21 10:58:01;;;;;;;0.10;0.10;;;;;;;22.47;42.14;101489.19;5009943;28;20042;-65
2023/04/21 11:00:28;;;;;;;0.10;0.10;;;;;;;21.93;44.67;101501.44;5010278;28;20100;-65
2023/04/21 11:03:01;;;;;;;0.10;0.10;;;;;;;22.07;44.78;101502.44;5009851;28;20461;-63
2023/04/21 11:05:37;;;;;;;0.10;0.10;;;;;;;22.54;44.09;101500.63;5010311;28;20100;-65
2023/04/21 11:08:07;;;;;;;0.10;0.10;;;;;;;22.50;44.34;101490.56;5002987;28;20046;-65
2023/04/21 11:10:55;;;;;;;0.10;0.10;;;;;;;22.40;44.41;101486.00;5010496;28;20033;-66
2023/04/21 11:13:26;;;;;;;0.10;0.10;;;;;;;23.22;42.43;101484.84;5035135;28;20109;-65
2023/04/21 11:16:09;;;;;;;0.10;0.10;;;;;;;22.77;43.77;101487.28;5052118;28;20041;-65
2023/04/21 11:18:40;;;;;;;0.20;0.20;;;;;;;23.21;43.23;101482.41;5052005;28;20064;-65
2023/04/21 11:21:23;;;;;;;0.10;0.10;;;;;;;23.04;42.89;101476.56;5051739;28;20033;-64
2023/04/21 11:23:53;;;;;;;0.10;0.10;;;;;;;22.28;45.46;101484.72;5052131;28;20029;-64